sensor_id;sensor_type;location;lat;lon;timestamp;pressure;altitude;pressure_sealevel;temperature
13570;BMP180;6856;51.460;7.158;2023-07-20T00:00:46;100269.00;;;23.60
13570;BMP180;6856;51.460;7.158;2023-07-20T00:03:20;100265.00;;;23.60
13570;BMP180;6856;51.460;7.158;2023-07-20T00:05:55;100272.00;;;23.60
13570;BMP180;6856;51.460;7.158;2023-07-20T00:08:31;100274.00;;;23.60
13570;BMP180;6856;51.460;7.158;2023-07-20T00:11:04;100265.00;;;23.50
13570;BMP180;6856;51.460;7.158;2023-07-20T00:13:38;100265.00;;;23.50
13570;BMP180;6856;51.460;7.158;2023-07-20T00:16:12;100265.00;;;23.50
13570;BMP180;6856;51.460;7.158;2023-07-20T00:18:46;100264.00;;;23.50
13570;BMP180;6856;51.460;7.158;2023-07-20T00:21:22;100261.00;;;23.50
13570;BMP180;6856;51.460;7.158;2023-07-20T00:23:57;100263.00;;;23.40
13570;BMP180;6856;51.460;7.158;2023-07-20T00:26:31;100260.00;;;23.40
13570;BMP180;6856;51.460;7.158;2023-07-20T00:29:05;100264.00;;;23.40
13570;BMP180;6856;51.460;7.158;2023-07-20T00:31:38;100252.00;;;23.40
13570;BMP180;6856;51.460;7.158;2023-07-20T00:34:13;100250.00;;;23.40
13570;BMP180;6856;51.460;7.158;2023-07-20T00:36:47;100248.00;;;23.40
13570;BMP180;6856;51.460;7.158;2023-07-20T00:39:23;100239.00;;;23.40
13570;BMP180;6856;51.460;7.158;2023-07-20T00:41:57;100244.00;;;23.40
13570;BMP180;6856;51.460;7.158;2023-07-20T00:44:31;100246.00;;;23.40
13570;BMP180;6856;51.460;7.158;2023-07-20T00:47:06;100251.00;;;23.40
13570;BMP180;6856;51.460;7.158;2023-07-20T00:49:40;100254.00;;;23.30
13570;BMP180;6856;51.460;7.158;2023-07-20T00:52:14;100251.00;;;23.30
13570;BMP180;6856;51.460;7.158;2023-07-20T00:54:50;100249.00;;;23.30
13570;BMP180;6856;51.460;7.158;2023-07-20T00:57:28;100242.00;;;23.30
13570;BMP180;6856;51.460;7.158;2023-07-20T01:00:03;100240.00;;;23.30
13570;BMP180;6856;51.460;7.158;2023-07-20T01:02:37;100249.00;;;23.30
13570;BMP180;6856;51.460;7.158;2023-07-20T01:05:12;100248.00;;;23.30
13570;BMP180;6856;51.460;7.158;2023-07-20T01:07:59;100246.00;;;23.30
13570;BMP180;6856;51.460;7.158;2023-07-20T01:10:41;100247.00;;;23.30
13570;BMP180;6856;51.460;7.158;2023-07-20T01:13:18;100247.00;;;23.30
13570;BMP180;6856;51.460;7.158;2023-07-20T01:15:57;100251.00;;;23.20
13570;BMP180;6856;51.460;7.158;2023-07-20T01:18:34;100244.00;;;23.20
13570;BMP180;6856;51.460;7.158;2023-07-20T01:21:19;100235.00;;;23.20
13570;BMP180;6856;51.460;7.158;2023-07-20T01:24:53;100247.00;;;23.20
13570;BMP180;6856;51.460;7.158;2023-07-20T01:28:24;100237.00;;;23.20
13570;BMP180;6856;51.460;7.158;2023-07-20T01:31:22;100237.00;;;23.20
13570;BMP180;6856;51.460;7.158;2023-07-20T01:34:00;100245.00;;;23.10
13570;BMP180;6856;51.460;7.158;2023-07-20T01:36:37;100245.00;;;23.10
13570;BMP180;6856;51.460;7.158;2023-07-20T01:39:12;100238.00;;;23.10
13570;BMP180;6856;51.460;7.158;2023-07-20T01:41:47;100245.00;;;23.10
13570;BMP180;6856;51.460;7.158;2023-07-20T01:44:20;100243.00;;;23.00
13570;BMP180;6856;51.460;7.158;2023-07-20T01:46:56;100234.00;;;23.00
13570;BMP180;6856;51.460;7.158;2023-07-20T01:49:30;100235.00;;;22.90
13570;BMP180;6856;51.460;7.158;2023-07-20T01:52:05;100234.00;;;22.90
13570;BMP180;6856;51.460;7.158;2023-07-20T01:54:39;100225.00;;;22.80
13570;BMP180;6856;51.460;7.158;2023-07-20T01:57:13;100232.00;;;22.80
13570;BMP180;6856;51.460;7.158;2023-07-20T01:59:47;100223.00;;;22.70
13570;BMP180;6856;51.460;7.158;2023-07-20T02:02:27;100220.00;;;22.70
13570;BMP180;6856;51.460;7.158;2023-07-20T02:05:01;100221.00;;;22.70
13570;BMP180;6856;51.460;7.158;2023-07-20T02:07:35;100230.00;;;22.70
13570;BMP180;6856;51.460;7.158;2023-07-20T02:10:10;100221.00;;;22.60
13570;BMP180;6856;51.460;7.158;2023-07-20T02:12:43;100221.00;;;22.60
13570;BMP180;6856;51.460;7.158;2023-07-20T02:15:18;100210.00;;;22.60
13570;BMP180;6856;51.460;7.158;2023-07-20T02:17:53;100216.00;;;22.50
13570;BMP180;6856;51.460;7.158;2023-07-20T02:20:27;100226.00;;;22.40
13570;BMP180;6856;51.460;7.158;2023-07-20T02:23:01;100219.00;;;22.40
13570;BMP180;6856;51.460;7.158;2023-07-20T02:25:35;100229.00;;;22.30
13570;BMP180;6856;51.460;7.158;2023-07-20T02:28:09;100232.00;;;22.20
13570;BMP180;6856;51.460;7.158;2023-07-20T02:30:42;100223.00;;;22.20
13570;BMP180;6856;51.460;7.158;2023-07-20T02:33:18;100228.00;;;22.10
13570;BMP180;6856;51.460;7.158;2023-07-20T02:35:52;100227.00;;;22.10
13570;BMP180;6856;51.460;7.158;2023-07-20T02:38:26;100224.00;;;22.10
13570;BMP180;6856;51.460;7.158;2023-07-20T02:41:00;100224.00;;;22.00
13570;BMP180;6856;51.460;7.158;2023-07-20T02:43:35;100239.00;;;22.00
13570;BMP180;6856;51.460;7.158;2023-07-20T02:46:09;100240.00;;;22.00
13570;BMP180;6856;51.460;7.158;2023-07-20T02:48:44;100237.00;;;22.00
13570;BMP180;6856;51.460;7.158;2023-07-20T02:51:18;100239.00;;;22.00
13570;BMP180;6856;51.460;7.158;2023-07-20T02:53:53;100234.00;;;22.00
13570;BMP180;6856;51.460;7.158;2023-07-20T02:56:26;100238.00;;;22.00
13570;BMP180;6856;51.460;7.158;2023-07-20T02:59:01;100250.00;;;22.00
13570;BMP180;6856;51.460;7.158;2023-07-20T03:01:36;100242.00;;;22.00
13570;BMP180;6856;51.460;7.158;2023-07-20T03:04:11;100245.00;;;22.00
13570;BMP180;6856;51.460;7.158;2023-07-20T03:06:45;100246.00;;;22.00
13570;BMP180;6856;51.460;7.158;2023-07-20T03:09:19;100245.00;;;22.00
13570;BMP180;6856;51.460;7.158;2023-07-20T03:11:57;100249.00;;;21.90
13570;BMP180;6856;51.460;7.158;2023-07-20T03:14:31;100247.00;;;21.90
13570;BMP180;6856;51.460;7.158;2023-07-20T03:17:05;100248.00;;;21.90
13570;BMP180;6856;51.460;7.158;2023-07-20T03:19:41;100247.00;;;21.90
13570;BMP180;6856;51.460;7.158;2023-07-20T03:22:15;100247.00;;;22.00
13570;BMP180;6856;51.460;7.158;2023-07-20T03:24:49;100245.00;;;22.00
13570;BMP180;6856;51.460;7.158;2023-07-20T03:27:23;100252.00;;;22.00
13570;BMP180;6856;51.460;7.158;2023-07-20T03:29:56;100250.00;;;22.00
13570;BMP180;6856;51.460;7.158;2023-07-20T03:32:30;100248.00;;;22.00
13570;BMP180;6856;51.460;7.158;2023-07-20T03:35:08;100252.00;;;22.00
13570;BMP180;6856;51.460;7.158;2023-07-20T03:37:41;100254.00;;;22.00
13570;BMP180;6856;51.460;7.158;2023-07-20T03:40:15;100259.00;;;22.10
13570;BMP180;6856;51.460;7.158;2023-07-20T03:42:49;100258.00;;;22.10
13570;BMP180;6856;51.460;7.158;2023-07-20T03:45:23;100266.00;;;22.10
13570;BMP180;6856;51.460;7.158;2023-07-20T03:47:56;100261.00;;;22.10
13570;BMP180;6856;51.460;7.158;2023-07-20T03:50:32;100263.00;;;22.10
13570;BMP180;6856;51.460;7.158;2023-07-20T03:53:06;100260.00;;;22.10
13570;BMP180;6856;51.460;7.158;2023-07-20T03:55:39;100272.00;;;22.10
13570;BMP180;6856;51.460;7.158;2023-07-20T03:58:14;100267.00;;;22.20
13570;BMP180;6856;51.460;7.158;2023-07-20T04:00:51;100254.00;;;22.20
13570;BMP180;6856;51.460;7.158;2023-07-20T04:03:25;100265.00;;;22.20
13570;BMP180;6856;51.460;7.158;2023-07-20T04:06:01;100266.00;;;22.20
13570;BMP180;6856;51.460;7.158;2023-07-20T04:08:36;100269.00;;;22.20
13570;BMP180;6856;51.460;7.158;2023-07-20T04:11:10;100269.00;;;22.20
13570;BMP180;6856;51.460;7.158;2023-07-20T04:13:43;100272.00;;;22.20
13570;BMP180;6856;51.460;7.158;2023-07-20T04:16:17;100269.00;;;22.20
13570;BMP180;6856;51.460;7.158;2023-07-20T04:18:55;100276.00;;;22.20
13570;BMP180;6856;51.460;7.158;2023-07-20T04:21:31;100280.00;;;22.20
13570;BMP180;6856;51.460;7.158;2023-07-20T04:24:05;100280.00;;;22.20
13570;BMP180;6856;51.460;7.158;2023-07-20T04:26:38;100279.00;;;22.10
13570;BMP180;6856;51.460;7.158;2023-07-20T04:29:12;100285.00;;;22.10
13570;BMP180;6856;51.460;7.158;2023-07-20T04:31:46;100278.00;;;22.10
13570;BMP180;6856;51.460;7.158;2023-07-20T04:34:20;100278.00;;;22.10
13570;BMP180;6856;51.460;7.158;2023-07-20T04:36:55;100285.00;;;22.10
13570;BMP180;6856;51.460;7.158;2023-07-20T04:39:29;100280.00;;;22.10
13570;BMP180;6856;51.460;7.158;2023-07-20T04:42:04;100287.00;;;22.10
13570;BMP180;6856;51.460;7.158;2023-07-20T04:44:38;100280.00;;;22.10
13570;BMP180;6856;51.460;7.158;2023-07-20T04:47:12;100285.00;;;22.10
13570;BMP180;6856;51.460;7.158;2023-07-20T04:49:47;100292.00;;;22.10
13570;BMP180;6856;51.460;7.158;2023-07-20T04:52:23;100290.00;;;22.10
13570;BMP180;6856;51.460;7.158;2023-07-20T04:55:13;100285.00;;;22.10
13570;BMP180;6856;51.460;7.158;2023-07-20T04:57:47;100296.00;;;22.10
13570;BMP180;6856;51.460;7.158;2023-07-20T05:00:21;100292.00;;;22.10
13570;BMP180;6856;51.460;7.158;2023-07-20T05:02:55;100298.00;;;22.10
13570;BMP180;6856;51.460;7.158;2023-07-20T05:05:28;100297.00;;;22.10
13570;BMP180;6856;51.460;7.158;2023-07-20T05:08:04;100301.00;;;22.10
13570;BMP180;6856;51.460;7.158;2023-07-20T05:10:38;100292.00;;;22.10
13570;BMP180;6856;51.460;7.158;2023-07-20T05:13:12;100297.00;;;22.10
13570;BMP180;6856;51.460;7.158;2023-07-20T05:15:45;100303.00;;;22.10
13570;BMP180;6856;51.460;7.158;2023-07-20T05:18:19;100304.00;;;22.10
13570;BMP180;6856;51.460;7.158;2023-07-20T05:20:54;100305.00;;;22.10
13570;BMP180;6856;51.460;7.158;2023-07-20T05:23:29;100303.00;;;22.10
13570;BMP180;6856;51.460;7.158;2023-07-20T05:26:03;100307.00;;;22.10
13570;BMP180;6856;51.460;7.158;2023-07-20T05:28:36;100303.00;;;22.10
13570;BMP180;6856;51.460;7.158;2023-07-20T05:31:11;100297.00;;;22.10
13570;BMP180;6856;51.460;7.158;2023-07-20T05:33:45;100296.00;;;22.10
13570;BMP180;6856;51.460;7.158;2023-07-20T05:36:19;100314.00;;;22.10
13570;BMP180;6856;51.460;7.158;2023-07-20T05:38:54;100313.00;;;22.00
13570;BMP180;6856;51.460;7.158;2023-07-20T05:41:28;100313.00;;;22.00
13570;BMP180;6856;51.460;7.158;2023-07-20T05:44:03;100315.00;;;22.00
13570;BMP180;6856;51.460;7.158;2023-07-20T05:46:36;100320.00;;;22.00
13570;BMP180;6856;51.460;7.158;2023-07-20T05:49:29;100326.00;;;21.90
13570;BMP180;6856;51.460;7.158;2023-07-20T05:52:04;100325.00;;;21.90
13570;BMP180;6856;51.460;7.158;2023-07-20T05:54:39;100322.00;;;21.90
13570;BMP180;6856;51.460;7.158;2023-07-20T05:57:13;100330.00;;;21.90
13570;BMP180;6856;51.460;7.158;2023-07-20T05:59:48;100332.00;;;21.90
13570;BMP180;6856;51.460;7.158;2023-07-20T06:02:22;100330.00;;;21.90
13570;BMP180;6856;51.460;7.158;2023-07-20T06:04:56;100315.00;;;21.90
13570;BMP180;6856;51.460;7.158;2023-07-20T06:07:29;100334.00;;;21.90
13570;BMP180;6856;51.460;7.158;2023-07-20T06:10:06;100339.00;;;21.90
13570;BMP180;6856;51.460;7.158;2023-07-20T06:12:40;100343.00;;;21.90
13570;BMP180;6856;51.460;7.158;2023-07-20T06:15:26;100355.00;;;21.90
13570;BMP180;6856;51.460;7.158;2023-07-20T06:18:00;100348.00;;;22.00
13570;BMP180;6856;51.460;7.158;2023-07-20T06:20:33;100353.00;;;21.90
13570;BMP180;6856;51.460;7.158;2023-07-20T06:23:07;100356.00;;;22.00
13570;BMP180;6856;51.460;7.158;2023-07-20T06:25:43;100358.00;;;22.00
13570;BMP180;6856;51.460;7.158;2023-07-20T06:28:17;100355.00;;;22.00
13570;BMP180;6856;51.460;7.158;2023-07-20T06:30:59;100357.00;;;22.00
13570;BMP180;6856;51.460;7.158;2023-07-20T06:33:33;100363.00;;;22.00
13570;BMP180;6856;51.460;7.158;2023-07-20T06:36:07;100365.00;;;22.00
13570;BMP180;6856;51.460;7.158;2023-07-20T06:38:41;100370.00;;;22.00
13570;BMP180;6856;51.460;7.158;2023-07-20T06:41:37;100369.00;;;22.00
13570;BMP180;6856;51.460;7.158;2023-07-20T06:44:14;100362.00;;;22.10
13570;BMP180;6856;51.460;7.158;2023-07-20T06:46:47;100354.00;;;22.10
13570;BMP180;6856;51.460;7.158;2023-07-20T06:49:25;100352.00;;;22.10
13570;BMP180;6856;51.460;7.158;2023-07-20T06:51:59;100359.00;;;22.10
13570;BMP180;6856;51.460;7.158;2023-07-20T06:54:33;100350.00;;;22.20
13570;BMP180;6856;51.460;7.158;2023-07-20T06:57:09;100358.00;;;22.20
13570;BMP180;6856;51.460;7.158;2023-07-20T06:59:46;100356.00;;;22.30
13570;BMP180;6856;51.460;7.158;2023-07-20T07:02:19;100363.00;;;22.30
13570;BMP180;6856;51.460;7.158;2023-07-20T07:04:53;100356.00;;;22.40
13570;BMP180;6856;51.460;7.158;2023-07-20T07:07:31;100364.00;;;22.50
13570;BMP180;6856;51.460;7.158;2023-07-20T07:10:07;100359.00;;;22.60
13570;BMP180;6856;51.460;7.158;2023-07-20T07:12:42;100359.00;;;22.60
13570;BMP180;6856;51.460;7.158;2023-07-20T07:15:16;100363.00;;;22.70
13570;BMP180;6856;51.460;7.158;2023-07-20T07:17:50;100375.00;;;22.70
13570;BMP180;6856;51.460;7.158;2023-07-20T07:20:23;100372.00;;;22.80
13570;BMP180;6856;51.460;7.158;2023-07-20T07:22:59;100377.00;;;22.80
13570;BMP180;6856;51.460;7.158;2023-07-20T07:25:33;100384.00;;;22.80
13570;BMP180;6856;51.460;7.158;2023-07-20T07:28:08;100380.00;;;22.70
13570;BMP180;6856;51.460;7.158;2023-07-20T07:30:42;100390.00;;;22.70
13570;BMP180;6856;51.460;7.158;2023-07-20T07:33:16;100381.00;;;22.60
13570;BMP180;6856;51.460;7.158;2023-07-20T07:35:50;100382.00;;;22.60
13570;BMP180;6856;51.460;7.158;2023-07-20T07:38:24;100387.00;;;22.60
13570;BMP180;6856;51.460;7.158;2023-07-20T07:41:20;100381.00;;;22.70
13570;BMP180;6856;51.460;7.158;2023-07-20T07:43:56;100376.00;;;22.70
13570;BMP180;6856;51.460;7.158;2023-07-20T07:46:30;100380.00;;;22.80
13570;BMP180;6856;51.460;7.158;2023-07-20T07:49:04;100381.00;;;22.90
13570;BMP180;6856;51.460;7.158;2023-07-20T07:51:37;100388.00;;;23.00
13570;BMP180;6856;51.460;7.158;2023-07-20T07:54:11;100393.00;;;23.00
13570;BMP180;6856;51.460;7.158;2023-07-20T07:56:45;100384.00;;;23.00
13570;BMP180;6856;51.460;7.158;2023-07-20T07:59:20;100406.00;;;23.00
13570;BMP180;6856;51.460;7.158;2023-07-20T08:01:54;100404.00;;;23.00
13570;BMP180;6856;51.460;7.158;2023-07-20T08:04:27;100396.00;;;23.00
13570;BMP180;6856;51.460;7.158;2023-07-20T08:07:04;100404.00;;;23.00
13570;BMP180;6856;51.460;7.158;2023-07-20T08:09:38;100407.00;;;22.90
13570;BMP180;6856;51.460;7.158;2023-07-20T08:12:12;100411.00;;;22.90
13570;BMP180;6856;51.460;7.158;2023-07-20T08:14:51;100415.00;;;22.90
13570;BMP180;6856;51.460;7.158;2023-07-20T08:17:25;100418.00;;;22.90
13570;BMP180;6856;51.460;7.158;2023-07-20T08:19:59;100418.00;;;22.90
13570;BMP180;6856;51.460;7.158;2023-07-20T08:22:33;100413.00;;;22.90
13570;BMP180;6856;51.460;7.158;2023-07-20T08:25:08;100415.00;;;23.00
13570;BMP180;6856;51.460;7.158;2023-07-20T08:27:42;100412.00;;;23.00
13570;BMP180;6856;51.460;7.158;2023-07-20T08:30:21;100414.00;;;23.10
13570;BMP180;6856;51.460;7.158;2023-07-20T08:32:56;100414.00;;;23.10
13570;BMP180;6856;51.460;7.158;2023-07-20T08:35:29;100423.00;;;23.20
13570;BMP180;6856;51.460;7.158;2023-07-20T08:38:03;100421.00;;;23.30
13570;BMP180;6856;51.460;7.158;2023-07-20T08:40:41;100419.00;;;23.30
13570;BMP180;6856;51.460;7.158;2023-07-20T08:43:15;100423.00;;;23.50
13570;BMP180;6856;51.460;7.158;2023-07-20T08:45:55;100416.00;;;23.60
13570;BMP180;6856;51.460;7.158;2023-07-20T08:48:30;100415.00;;;23.70
13570;BMP180;6856;51.460;7.158;2023-07-20T08:51:04;100416.00;;;23.80
13570;BMP180;6856;51.460;7.158;2023-07-20T08:53:39;100431.00;;;24.00
13570;BMP180;6856;51.460;7.158;2023-07-20T08:56:15;100431.00;;;24.10
13570;BMP180;6856;51.460;7.158;2023-07-20T08:58:50;100435.00;;;24.20
13570;BMP180;6856;51.460;7.158;2023-07-20T09:01:28;100436.00;;;24.30
13570;BMP180;6856;51.460;7.158;2023-07-20T09:04:03;100433.00;;;24.40
13570;BMP180;6856;51.460;7.158;2023-07-20T09:06:37;100431.00;;;24.60
13570;BMP180;6856;51.460;7.158;2023-07-20T09:09:11;100432.00;;;24.60
13570;BMP180;6856;51.460;7.158;2023-07-20T09:11:47;100426.00;;;24.70
13570;BMP180;6856;51.460;7.158;2023-07-20T09:14:23;100427.00;;;24.80
13570;BMP180;6856;51.460;7.158;2023-07-20T09:16:59;100404.00;;;24.90
13570;BMP180;6856;51.460;7.158;2023-07-20T09:19:33;100421.00;;;25.00
13570;BMP180;6856;51.460;7.158;2023-07-20T09:22:07;100419.00;;;25.00
13570;BMP180;6856;51.460;7.158;2023-07-20T09:24:40;100428.00;;;25.10
13570;BMP180;6856;51.460;7.158;2023-07-20T09:27:16;100424.00;;;25.20
13570;BMP180;6856;51.460;7.158;2023-07-20T09:29:50;100419.00;;;25.30
13570;BMP180;6856;51.460;7.158;2023-07-20T09:32:25;100422.00;;;25.40
13570;BMP180;6856;51.460;7.158;2023-07-20T09:34:59;100432.00;;;25.50
13570;BMP180;6856;51.460;7.158;2023-07-20T09:37:58;100422.00;;;25.60
13570;BMP180;6856;51.460;7.158;2023-07-20T09:40:38;100427.00;;;25.70
13570;BMP180;6856;51.460;7.158;2023-07-20T09:43:16;100428.00;;;25.80
13570;BMP180;6856;51.460;7.158;2023-07-20T09:45:58;100420.00;;;25.90
13570;BMP180;6856;51.460;7.158;2023-07-20T09:48:33;100428.00;;;26.00
13570;BMP180;6856;51.460;7.158;2023-07-20T09:51:28;100409.00;;;26.00
13570;BMP180;6856;51.460;7.158;2023-07-20T09:54:03;100427.00;;;26.10
13570;BMP180;6856;51.460;7.158;2023-07-20T09:56:39;100424.00;;;26.00
13570;BMP180;6856;51.460;7.158;2023-07-20T09:59:14;100431.00;;;26.00
13570;BMP180;6856;51.460;7.158;2023-07-20T10:01:52;100421.00;;;26.00
13570;BMP180;6856;51.460;7.158;2023-07-20T10:04:29;100416.00;;;26.00
13570;BMP180;6856;51.460;7.158;2023-07-20T10:07:09;100414.00;;;26.00
13570;BMP180;6856;51.460;7.158;2023-07-20T10:09:45;100419.00;;;26.10
13570;BMP180;6856;51.460;7.158;2023-07-20T10:12:22;100407.00;;;26.20
13570;BMP180;6856;51.460;7.158;2023-07-20T10:15:08;100409.00;;;26.20
13570;BMP180;6856;51.460;7.158;2023-07-20T10:18:00;100429.00;;;26.30
13570;BMP180;6856;51.460;7.158;2023-07-20T10:20:40;100417.00;;;26.40
13570;BMP180;6856;51.460;7.158;2023-07-20T10:23:35;100417.00;;;26.50
13570;BMP180;6856;51.460;7.158;2023-07-20T10:26:09;100417.00;;;26.50
13570;BMP180;6856;51.460;7.158;2023-07-20T10:28:43;100414.00;;;26.70
13570;BMP180;6856;51.460;7.158;2023-07-20T10:31:18;100419.00;;;26.80
13570;BMP180;6856;51.460;7.158;2023-07-20T10:33:52;100414.00;;;26.90
13570;BMP180;6856;51.460;7.158;2023-07-20T10:36:28;100425.00;;;26.90
13570;BMP180;6856;51.460;7.158;2023-07-20T10:39:03;100418.00;;;26.90
13570;BMP180;6856;51.460;7.158;2023-07-20T10:41:40;100419.00;;;26.90
13570;BMP180;6856;51.460;7.158;2023-07-20T10:44:20;100406.00;;;27.00
13570;BMP180;6856;51.460;7.158;2023-07-20T10:47:00;100407.00;;;27.10
13570;BMP180;6856;51.460;7.158;2023-07-20T10:50:00;100410.00;;;27.10
13570;BMP180;6856;51.460;7.158;2023-07-20T10:53:04;100405.00;;;27.20
13570;BMP180;6856;51.460;7.158;2023-07-20T10:55:38;100402.00;;;27.20
13570;BMP180;6856;51.460;7.158;2023-07-20T10:58:14;100408.00;;;27.30
13570;BMP180;6856;51.460;7.158;2023-07-20T11:01:00;100414.00;;;27.30
13570;BMP180;6856;51.460;7.158;2023-07-20T11:03:37;100407.00;;;27.40
13570;BMP180;6856;51.460;7.158;2023-07-20T11:06:36;100399.00;;;27.40
13570;BMP180;6856;51.460;7.158;2023-07-20T11:09:14;100393.00;;;27.50
13570;BMP180;6856;51.460;7.158;2023-07-20T11:11:49;100390.00;;;27.60
13570;BMP180;6856;51.460;7.158;2023-07-20T11:14:25;100389.00;;;27.70
13570;BMP180;6856;51.460;7.158;2023-07-20T11:17:11;100391.00;;;27.70
13570;BMP180;6856;51.460;7.158;2023-07-20T11:19:48;100390.00;;;27.80
13570;BMP180;6856;51.460;7.158;2023-07-20T11:22:25;100392.00;;;27.80
13570;BMP180;6856;51.460;7.158;2023-07-20T11:25:01;100389.00;;;27.90
13570;BMP180;6856;51.460;7.158;2023-07-20T11:27:45;100388.00;;;28.00
13570;BMP180;6856;51.460;7.158;2023-07-20T11:30:20;100388.00;;;28.00
13570;BMP180;6856;51.460;7.158;2023-07-20T11:32:55;100385.00;;;28.10
13570;BMP180;6856;51.460;7.158;2023-07-20T11:35:30;100385.00;;;28.20
13570;BMP180;6856;51.460;7.158;2023-07-20T11:38:04;100380.00;;;28.30
13570;BMP180;6856;51.460;7.158;2023-07-20T11:40:47;100379.00;;;28.40
13570;BMP180;6856;51.460;7.158;2023-07-20T11:43:21;100385.00;;;28.50
13570;BMP180;6856;51.460;7.158;2023-07-20T11:45:56;100386.00;;;28.50
13570;BMP180;6856;51.460;7.158;2023-07-20T11:48:30;100386.00;;;28.50
13570;BMP180;6856;51.460;7.158;2023-07-20T11:51:04;100379.00;;;28.50
13570;BMP180;6856;51.460;7.158;2023-07-20T11:53:41;100373.00;;;28.50
13570;BMP180;6856;51.460;7.158;2023-07-20T11:56:17;100380.00;;;28.50
13570;BMP180;6856;51.460;7.158;2023-07-20T11:58:54;100380.00;;;28.50
13570;BMP180;6856;51.460;7.158;2023-07-20T12:01:32;100379.00;;;28.50
13570;BMP180;6856;51.460;7.158;2023-07-20T12:04:07;100368.00;;;28.50
13570;BMP180;6856;51.460;7.158;2023-07-20T12:06:41;100375.00;;;28.50
13570;BMP180;6856;51.460;7.158;2023-07-20T12:09:17;100365.00;;;28.60
13570;BMP180;6856;51.460;7.158;2023-07-20T12:11:52;100373.00;;;28.70
13570;BMP180;6856;51.460;7.158;2023-07-20T12:14:28;100377.00;;;28.70
13570;BMP180;6856;51.460;7.158;2023-07-20T12:17:08;100372.00;;;28.70
13570;BMP180;6856;51.460;7.158;2023-07-20T12:19:42;100375.00;;;28.70
13570;BMP180;6856;51.460;7.158;2023-07-20T12:22:15;100364.00;;;28.70
13570;BMP180;6856;51.460;7.158;2023-07-20T12:24:52;100363.00;;;28.70
13570;BMP180;6856;51.460;7.158;2023-07-20T12:27:29;100371.00;;;28.70
13570;BMP180;6856;51.460;7.158;2023-07-20T12:30:05;100364.00;;;28.60
13570;BMP180;6856;51.460;7.158;2023-07-20T12:32:39;100358.00;;;28.50
13570;BMP180;6856;51.460;7.158;2023-07-20T12:35:13;100365.00;;;28.50
13570;BMP180;6856;51.460;7.158;2023-07-20T12:37:48;100364.00;;;28.40
13570;BMP180;6856;51.460;7.158;2023-07-20T12:40:24;100355.00;;;28.40
13570;BMP180;6856;51.460;7.158;2023-07-20T12:42:59;100352.00;;;28.40
13570;BMP180;6856;51.460;7.158;2023-07-20T12:45:34;100357.00;;;28.40
13570;BMP180;6856;51.460;7.158;2023-07-20T12:48:07;100348.00;;;28.40
13570;BMP180;6856;51.460;7.158;2023-07-20T12:50:41;100348.00;;;28.40
13570;BMP180;6856;51.460;7.158;2023-07-20T12:53:16;100351.00;;;28.50
13570;BMP180;6856;51.460;7.158;2023-07-20T12:56:15;100348.00;;;28.50
13570;BMP180;6856;51.460;7.158;2023-07-20T12:58:53;100349.00;;;28.50
13570;BMP180;6856;51.460;7.158;2023-07-20T13:01:27;100347.00;;;28.50
13570;BMP180;6856;51.460;7.158;2023-07-20T13:04:02;100339.00;;;28.50
13570;BMP180;6856;51.460;7.158;2023-07-20T13:06:39;100339.00;;;28.40
13570;BMP180;6856;51.460;7.158;2023-07-20T13:09:17;100344.00;;;28.40
13570;BMP180;6856;51.460;7.158;2023-07-20T13:11:51;100345.00;;;28.30
13570;BMP180;6856;51.460;7.158;2023-07-20T13:14:27;100337.00;;;28.20
13570;BMP180;6856;51.460;7.158;2023-07-20T13:17:01;100337.00;;;28.10
13570;BMP180;6856;51.460;7.158;2023-07-20T13:19:38;100335.00;;;28.00
13570;BMP180;6856;51.460;7.158;2023-07-20T13:22:12;100338.00;;;27.90
13570;BMP180;6856;51.460;7.158;2023-07-20T13:24:47;100343.00;;;27.90
13570;BMP180;6856;51.460;7.158;2023-07-20T13:27:21;100315.00;;;27.90
13570;BMP180;6856;51.460;7.158;2023-07-20T13:30:00;100340.00;;;27.90
13570;BMP180;6856;51.460;7.158;2023-07-20T13:32:41;100334.00;;;27.90
13570;BMP180;6856;51.460;7.158;2023-07-20T13:35:16;100332.00;;;27.80
13570;BMP180;6856;51.460;7.158;2023-07-20T13:37:50;100342.00;;;27.80
13570;BMP180;6856;51.460;7.158;2023-07-20T13:40:24;100339.00;;;27.80
13570;BMP180;6856;51.460;7.158;2023-07-20T13:42:58;100341.00;;;27.80
13570;BMP180;6856;51.460;7.158;2023-07-20T13:45:34;100340.00;;;27.80
13570;BMP180;6856;51.460;7.158;2023-07-20T13:48:08;100335.00;;;27.80
13570;BMP180;6856;51.460;7.158;2023-07-20T13:50:42;100333.00;;;27.80
13570;BMP180;6856;51.460;7.158;2023-07-20T13:53:30;100332.00;;;27.80
13570;BMP180;6856;51.460;7.158;2023-07-20T13:56:07;100331.00;;;27.80
13570;BMP180;6856;51.460;7.158;2023-07-20T13:58:44;100322.00;;;27.80
13570;BMP180;6856;51.460;7.158;2023-07-20T14:01:24;100330.00;;;27.70
13570;BMP180;6856;51.460;7.158;2023-07-20T14:04:02;100319.00;;;27.70
13570;BMP180;6856;51.460;7.158;2023-07-20T14:06:36;100316.00;;;27.70
13570;BMP180;6856;51.460;7.158;2023-07-20T14:09:11;100315.00;;;27.70
13570;BMP180;6856;51.460;7.158;2023-07-20T14:11:45;100307.00;;;27.70
13570;BMP180;6856;51.460;7.158;2023-07-20T14:14:21;100310.00;;;27.70
13570;BMP180;6856;51.460;7.158;2023-07-20T14:16:57;100303.00;;;27.70
13570;BMP180;6856;51.460;7.158;2023-07-20T14:19:30;100301.00;;;27.70
13570;BMP180;6856;51.460;7.158;2023-07-20T14:22:05;100304.00;;;27.70
13570;BMP180;6856;51.460;7.158;2023-07-20T14:24:40;100289.00;;;27.70
13570;BMP180;6856;51.460;7.158;2023-07-20T14:27:14;100279.00;;;27.70
13570;BMP180;6856;51.460;7.158;2023-07-20T14:29:48;100296.00;;;27.80
13570;BMP180;6856;51.460;7.158;2023-07-20T14:32:24;100293.00;;;27.80
13570;BMP180;6856;51.460;7.158;2023-07-20T14:34:58;100290.00;;;27.80
13570;BMP180;6856;51.460;7.158;2023-07-20T14:37:32;100293.00;;;27.80
13570;BMP180;6856;51.460;7.158;2023-07-20T14:40:08;100289.00;;;27.80
13570;BMP180;6856;51.460;7.158;2023-07-20T14:42:43;100292.00;;;27.80
13570;BMP180;6856;51.460;7.158;2023-07-20T14:45:18;100296.00;;;27.80
13570;BMP180;6856;51.460;7.158;2023-07-20T14:47:54;100288.00;;;27.90
13570;BMP180;6856;51.460;7.158;2023-07-20T14:50:27;100285.00;;;27.90
13570;BMP180;6856;51.460;7.158;2023-07-20T14:53:01;100282.00;;;28.00
13570;BMP180;6856;51.460;7.158;2023-07-20T14:55:38;100283.00;;;28.00
13570;BMP180;6856;51.460;7.158;2023-07-20T14:58:11;100280.00;;;28.00
13570;BMP180;6856;51.460;7.158;2023-07-20T15:00:45;100265.00;;;28.00